Latest Weather Observations for Coober Pedy Airport

IDS60801

Issued at 6:31 pm CST Saturday 30 April 2016 (issued every 30 minutes, with the page automatically refreshed every 10 minutes)

About weather observations | Map of weather stations | Latest weather observations for SA | Other Formats
Station Details ID: 016090 Name: COOBER PEDY AIRPORT Lat: -29.03 Lon: 134.72 Height: 225.0 m
Data from the previous 72 hours. | See also: Recent months at Coober Pedy Airport
Date/Time
CST
Temp
°C
App
Temp
°C
Dew
Point
Rel
Hum
%
Delta-T
°C
Wind Press
QNH
hPa
Press
MSL
hPa
Rain
since 9 am
mm
Dir
 
Spd
km/h
Gust
km/h
Spd
kts
Gust
kts
30/06:30pm 27.0 21.6 9.4 33 9.8 WSW 28 37 15 20 1012.6 1011.9 0.0
30/06:00pm 27.7 21.4 9.0 31 10.4 WSW 32 39 17 21 1012.1 1011.4 0.0
30/05:30pm 28.8 23.5 10.0 31 10.7 W 28 37 15 20 1011.6 1010.9 0.0
30/05:00pm 29.2 22.7 10.3 31 10.8 W 35 46 19 25 1011.3 1010.5 0.0
30/04:30pm 29.4 22.4 10.0 30 11.1 WNW 37 52 20 28 1011.0 1010.2 0.0
30/04:01pm 29.6 23.1 10.2 30 11.1 NW 35 54 19 29 1010.9 1010.1 0.0
30/04:00pm 29.5 22.5 10.1 30 11.1 NW 37 54 20 29 1010.9 1010.1 0.0
30/03:30pm 29.6 22.3 10.2 30 11.1 NW 39 57 21 31 1010.8 1010.0 0.0
30/03:03pm 30.8 24.3 10.2 28 11.8 NW 35 54 19 29 1010.7 1009.9 0.0
30/03:00pm 30.6 24.5 10.5 29 11.6 NW 33 46 18 25 1010.8 1010.0 0.0
30/02:30pm 30.3 23.8 10.3 29 11.5 NW 35 46 19 25 1010.9 1010.1 0.0
30/02:00pm 30.0 24.9 10.5 30 11.2 NW 28 39 15 21 1011.2 1010.4 0.0
30/01:30pm 29.2 23.6 10.3 31 10.8 NW 30 41 16 22 1011.5 1010.8 0.0
30/01:00pm 27.7 21.7 10.0 33 10.0 NW 32 41 17 22 1012.2 1011.5 0.0
30/12:30pm 27.6 22.3 9.9 33 10.0 WNW 28 39 15 21 1012.9 1012.1 0.0
30/12:00pm 28.1 22.2 10.3 33 10.1 WNW 32 46 17 25 1013.4 1012.6 0.0
30/11:30am 27.2 21.2 10.0 34 9.7 WNW 32 41 17 22 1013.7 1012.9 0.0
30/11:00am 26.7 21.4 10.0 35 9.4 NW 28 37 15 20 1014.3 1013.5 0.0
30/10:30am 25.8 23.5 10.4 38 8.7 NNW 13 22 7 12 1014.7 1013.9 0.0
30/10:00am 24.0 20.2 9.9 41 7.8 NNW 20 28 11 15 1014.9 1014.1 0.0
30/09:30am 21.1 17.9 10.0 49 6.1 N 17 20 9 11 1014.8 1014.0 0.0
30/09:00am 19.3 15.6 9.5 53 5.2 NNE 19 22 10 12 1015.0 1014.2 0.0
30/08:30am 18.3 15.0 9.6 57 4.6 NNE 17 20 9 11 1015.1 1014.3 0.0
30/08:00am 17.6 14.7 9.8 60 4.2 NE 15 19 8 10 1014.5 1013.7 0.0
30/07:30am 16.6 13.4 10.0 65 3.5 NE 17 19 9 10 1014.5 1013.7 0.0
30/07:00am 15.7 12.8 9.6 67 3.2 NE 15 17 8 9 1014.3 1013.5 0.0
30/06:30am 15.7 13.2 9.8 68 3.1 NE 13 17 7 9 1014.6 1013.8 0.0
30/06:00am 16.0 13.2 10.1 68 3.1 NE 15 17 8 9 1014.2 1013.4 0.0
30/05:30am 16.3 14.4 10.4 68 3.2 NE 11 13 6 7 1014.1 1013.3 0.0
30/05:00am 16.8 17.1 10.9 68 3.2 CALM 0 0 0 0 1013.7 1012.9 0.0
30/04:30am 16.8 17.2 11.3 70 3.0 CALM 0 4 0 2 1013.6 1012.8 0.0
30/04:00am 16.5 16.9 11.2 71 2.9 CALM 0 0 0 0 1013.6 1012.8 0.0
30/03:30am 16.2 16.6 11.2 72 2.7 CALM 0 0 0 0 1013.7 1012.9 0.0
30/03:00am 16.8 17.2 11.3 70 3.0 CALM 0 0 0 0 1013.9 1013.1 0.0
30/02:30am 17.1 17.7 11.8 71 2.9 CALM 0 0 0 0 1014.1 1013.3 0.0
30/02:00am 17.4 17.9 11.7 69 3.1 CALM 0 0 0 0 1014.2 1013.4 0.0
30/01:30am 17.4 17.9 11.7 69 3.1 CALM 0 0 0 0 1014.4 1013.6 0.0
30/01:00am 17.7 18.2 11.7 68 3.3 CALM 0 0 0 0 1014.6 1013.8 0.0
30/12:30am 18.4 18.9 11.7 65 3.7 CALM 0 0 0 0 1014.8 1014.0 0.0
30/12:00am 18.0 17.2 11.6 66 3.5 NNE 7 9 4 5 1015.3 1014.6 0.0
 
Date/Time
CST
Temp
°C
App
Temp
°C
Dew
Point
Rel
Hum
%
Delta-T
°C
Wind Press
QNH
hPa
Press
MSL
hPa
Rain
since 9 am
mm
Dir
 
Spd
km/h
Gust
km/h
Spd
kts
Gust
kts
29/11:30pm 18.0 16.8 11.6 66 3.5 NNE 9 11 5 6 1015.5 1014.8 0.0
29/11:00pm 18.2 16.3 11.7 66 3.6 NNE 13 15 7 8 1015.7 1015.0 0.0
29/10:30pm 18.7 17.7 12.2 66 3.6 N 9 17 5 9 1015.7 1015.0 0.0
29/10:00pm 19.5 19.4 12.0 62 4.2 WSW 4 6 2 3 1015.5 1014.8 0.0
29/09:30pm 20.2 19.9 13.2 64 4.0 WSW 7 9 4 5 1015.4 1014.7 0.0
29/09:00pm 19.9 18.9 12.4 62 4.2 WSW 9 9 5 5 1015.6 1014.9 0.0
29/08:30pm 19.9 18.5 12.2 61 4.3 W 11 11 6 6 1015.5 1014.8 0.0
29/08:00pm 20.5 18.9 12.7 61 4.5 W 13 15 7 8 1015.3 1014.6 0.0
29/07:30pm 21.3 20.1 12.7 58 4.9 W 11 11 6 6 1015.2 1014.4 0.0
29/07:00pm 22.6 20.7 13.1 55 5.5 W 15 17 8 9 1015.0 1014.2 0.0
29/06:30pm 23.5 21.0 13.4 53 5.9 WSW 19 22 10 12 1014.5 1013.7 0.0
29/06:00pm 24.3 20.7 13.2 50 6.5 W 24 30 13 16 1014.4 1013.6 0.0
29/05:30pm 25.2 21.2 13.1 47 7.1 WSW 26 32 14 17 1014.3 1013.5 0.0
29/05:00pm 26.3 22.4 12.0 41 8.3 W 24 32 13 17 1014.0 1013.2 0.0
29/04:30pm 26.5 21.6 11.4 39 8.7 W 28 37 15 20 1013.9 1013.1 0.0
29/04:19pm 27.1 22.1 10.8 36 9.3 WNW 28 46 15 25 1013.8 1013.0 0.0
29/04:00pm 27.4 22.3 10.6 35 9.6 WNW 28 37 15 20 1013.6 1012.8 0.0
29/03:30pm 27.0 21.7 9.8 34 9.6 WNW 28 39 15 21 1013.2 1012.4 0.0
29/03:00pm 26.6 23.0 10.7 37 9.0 W 20 28 11 15 1012.9 1012.1 0.0
29/02:30pm 26.3 22.6 11.6 40 8.5 WSW 22 30 12 16 1012.6 1011.9 0.0
29/02:00pm 26.4 23.0 9.3 34 9.5 NNW 17 19 9 10 1012.6 1011.9 0.0
29/01:30pm 25.5 23.2 10.5 39 8.5 NNW 13 19 7 10 1012.6 1011.9 0.0
29/01:00pm 23.1 20.4 11.8 49 6.4 WNW 17 22 9 12 1013.9 1013.1 0.0
29/12:30pm 22.4 17.3 11.8 51 6.0 WNW 30 39 16 21 1014.9 1014.1 0.0
29/12:00pm 22.8 19.6 11.8 50 6.2 WNW 20 30 11 16 1015.2 1014.4 0.0
29/11:30am 22.5 19.3 11.9 51 6.0 W 20 26 11 14 1015.4 1014.7 0.0
29/11:00am 22.6 17.5 12.0 51 6.0 WSW 30 37 16 20 1015.8 1015.1 0.0
29/10:30am 22.4 17.0 12.1 52 5.9 W 32 41 17 22 1016.3 1015.6 0.0
29/10:00am 22.4 18.4 11.8 51 6.0 W 24 35 13 19 1016.1 1015.4 0.0
29/09:30am 22.1 18.2 12.1 53 5.7 W 24 30 13 16 1015.9 1015.2 0.0
29/09:00am 21.9 18.7 11.9 53 5.7 W 20 26 11 14 1015.7 1015.0 0.0
29/08:30am 21.6 19.5 12.5 56 5.2 W 15 20 8 11 1015.6 1014.9 0.0
29/08:00am 21.3 18.8 12.2 56 5.2 WSW 17 22 9 12 1015.6 1014.9 0.0
29/07:30am 21.0 17.9 12.2 57 5.0 WSW 20 24 11 13 1015.2 1014.4 0.0
29/07:00am 20.8 17.8 12.5 59 4.7 WSW 20 28 11 15 1015.1 1014.3 0.0
29/06:30am 20.6 18.2 12.8 61 4.5 WSW 17 20 9 11 1014.8 1014.0 0.0
29/06:00am 20.9 18.0 12.8 60 4.6 SW 20 28 11 15 1014.9 1014.1 0.0
29/05:30am 21.1 17.1 13.0 60 4.7 WSW 26 33 14 18 1014.9 1014.1 0.0
29/05:00am 21.4 16.4 12.3 56 5.2 SW 30 37 16 20 1015.0 1014.2 0.0
29/04:30am 21.6 16.5 11.9 54 5.5 SW 30 35 16 19 1015.0 1014.2 0.0
29/04:00am 22.0 17.1 11.4 51 6.0 SSW 28 35 15 19 1014.8 1014.0 0.0
29/03:30am 22.2 17.2 11.0 49 6.3 SSW 28 32 15 17 1014.8 1014.0 0.0
29/03:00am 22.3 18.0 10.8 48 6.4 SSW 24 32 13 17 1014.4 1013.6 0.0
29/02:30am 22.9 17.1 10.7 46 6.8 SW 32 39 17 21 1014.3 1013.5 0.0
29/02:00am 23.3 17.2 10.4 44 7.2 SW 33 46 18 25 1014.4 1013.6 0.0
29/01:30am 23.6 15.9 10.3 43 7.4 SW 41 54 22 29 1013.7 1012.9 0.0
29/01:25am 23.7 17.7 10.0 42 7.6 SW 32 50 17 27 1013.4 1012.6 0.0
29/01:00am 24.2 17.0 9.0 38 8.3 SW 37 46 20 25 1013.5 1012.7 0.0
29/12:54am 24.3 17.4 8.7 37 8.5 SW 35 44 19 24 1013.5 1012.7 0.0
29/12:41am 25.6 18.5 6.3 29 10.1 WNW 33 50 18 27 1013.4 1012.6 0.0
29/12:33am 26.6 20.6 3.2 22 11.7 NW 24 46 13 25 1013.3 1012.5 0.0
29/12:30am 26.2 19.7 2.8 22 11.6 NW 26 46 14 25 1013.0 1012.2 0.0
29/12:26am 25.7 19.3 3.0 23 11.2 NW 26 46 14 25 1013.4 1012.6 0.0
29/12:00am 25.8 19.1 3.7 24 11.1 NNE 28 35 15 19 1012.1 1011.4 0.0
 
Date/Time
CST
Temp
°C
App
Temp
°C
Dew
Point
Rel
Hum
%
Delta-T
°C
Wind Press
QNH
hPa
Press
MSL
hPa
Rain
since 9 am
mm
Dir
 
Spd
km/h
Gust
km/h
Spd
kts
Gust
kts
28/11:30pm 26.4 20.3 3.0 22 11.6 NNE 24 37 13 20 1012.4 1011.7 0.0
28/11:00pm 26.4 19.5 2.3 21 11.8 NNE 28 37 15 20 1012.9 1012.1 0.0
28/10:30pm 26.7 19.6 1.2 19 12.3 NNE 28 39 15 21 1012.9 1012.1 0.0
28/10:00pm 25.2 20.2 1.3 21 11.4 NE 17 22 9 12 1012.8 1012.0 0.0
28/09:30pm 25.3 20.0 2.1 22 11.2 NNE 19 24 10 13 1013.0 1012.2 0.0
28/09:00pm 25.4 19.6 2.2 22 11.3 NE 22 26 12 14 1012.6 1011.9 0.0
28/08:30pm 25.7 19.9 2.4 22 11.4 NE 22 26 12 14 1012.3 1011.6 0.0
28/08:00pm 26.0 20.3 2.7 22 11.5 NE 22 28 12 15 1012.3 1011.6 0.0
28/07:30pm 26.4 20.2 2.3 21 11.8 NE 24 28 13 15 1012.1 1011.4 0.0
28/07:00pm 26.8 21.1 2.7 21 11.9 NE 22 28 12 15 1012.0 1011.3 0.0
28/06:30pm 27.1 20.9 2.2 20 12.2 NNE 24 32 13 17 1011.9 1011.2 0.0
28/06:00pm 27.7 21.8 2.0 19 12.6 NNE 22 26 12 14 1012.0 1011.3 0.0
28/05:30pm 28.5 22.3 1.9 18 13.1 NNE 24 32 13 17 1012.0 1011.3 0.0
28/05:00pm 29.1 22.4 1.6 17 13.6 NNE 26 35 14 19 1011.7 1011.0 0.0
28/04:30pm 28.9 23.6 3.0 19 13.1 NE 20 26 11 14 1011.8 1011.1 0.0
28/04:00pm 29.1 22.2 2.4 18 13.3 NE 28 33 15 18 1011.9 1011.2 0.0
28/03:30pm 29.2 23.2 3.2 19 13.2 NE 24 30 13 16 1012.1 1011.4 0.0
28/03:00pm 27.6 21.3 4.0 22 12.0 NE 26 30 14 16 1012.5 1011.8 0.0
28/02:30pm 27.6 21.0 4.0 22 12.0 NNE 28 32 15 17 1013.0 1012.2 0.0
28/02:00pm 27.3 21.0 3.7 22 11.9 NNE 26 32 14 17 1013.6 1012.8 0.0
28/01:30pm 26.9 20.2 3.4 22 11.8 NNE 28 35 15 19 1013.7 1012.9 0.0
28/01:00pm 27.0 19.5 3.5 22 11.8 NNE 32 37 17 20 1014.2 1013.4 0.0
28/12:30pm 27.1 19.6 3.6 22 11.8 NNE 32 39 17 21 1014.6 1013.8 0.0
28/12:00pm 27.4 19.3 3.2 21 12.1 NNE 35 44 19 24 1015.0 1014.2 0.0
28/11:30am 27.3 18.8 3.1 21 12.1 NNE 37 44 20 24 1015.5 1014.8 0.0
28/11:00am 27.5 19.8 3.2 21 12.2 NNE 33 43 18 23 1016.0 1015.3 0.0
28/10:30am 25.9 19.1 3.2 23 11.3 NE 28 33 15 18 1016.3 1015.6 0.0
28/10:00am 25.8 19.9 3.7 24 11.1 NE 24 33 13 18 1016.6 1015.9 0.0
28/09:30am 24.1 19.3 4.5 28 9.8 NE 19 24 10 13 1016.4 1015.7 0.0
28/09:00am 22.7 17.9 4.7 31 9.0 NE 19 24 10 13 1016.3 1015.6 0.0
28/08:30am 21.6 17.4 5.9 36 8.0 ENE 17 20 9 11 1016.0 1015.3 0.0
28/08:00am 21.0 16.3 6.2 38 7.5 ENE 20 22 11 12 1015.7 1015.0 0.0
28/07:30am 20.8 16.7 8.8 46 6.4 NE 20 22 11 12 1015.7 1015.0 0.0
28/07:00am 21.1 18.4 10.3 50 5.9 NE 15 17 8 9 1015.5 1014.8 0.0
28/06:30am 21.5 18.2 9.7 47 6.4 NE 17 19 9 10 1015.3 1014.6 0.0
28/06:00am 21.6 18.6 7.8 41 7.2 ENE 13 15 7 8 1015.2 1014.4 0.0
28/05:30am 22.1 18.1 6.7 37 8.0 ENE 17 20 9 11 1014.9 1014.1 0.0
28/05:00am 21.3 17.0 7.9 42 7.0 NNE 20 30 11 16 1014.9 1014.1 0.0
28/04:30am 22.5 17.6 7.1 37 8.0 NE 22 24 12 13 1015.1 1014.3 0.0
28/04:00am 21.1 16.6 10.0 49 6.1 NE 24 30 13 16 1014.8 1014.0 0.0
28/03:30am 21.2 18.1 10.4 50 5.9 NE 17 19 9 10 1015.1 1014.3 0.0
28/03:00am 21.2 19.1 11.0 52 5.7 NE 13 15 7 8 1015.3 1014.6 0.0
28/02:30am 21.3 20.7 12.4 57 5.1 NNW 7 9 4 5 1015.5 1014.8 0.0
28/02:00am 21.6 20.3 10.1 48 6.3 W 7 11 4 6 1015.7 1015.0 0.0
28/01:30am 20.9 19.3 11.5 55 5.3 W 11 15 6 8 1015.8 1015.1 0.0
28/01:00am 21.4 19.2 9.3 46 6.5 WSW 11 13 6 7 1016.1 1015.4 0.0
28/12:30am 22.5 19.7 5.0 32 8.8 W 9 13 5 7 1016.2 1015.5 0.0
28/12:00am 22.4 21.3 4.9 32 8.7 CALM 0 0 0 0 1016.3 1015.6 0.0
 
Date/Time
CST
Temp
°C
App
Temp
°C
Dew
Point
Rel
Hum
%
Delta-T
°C
Wind Press
QNH
hPa
Press
MSL
hPa
Rain
since 9 am
mm
Dir
 
Spd
km/h
Gust
km/h
Spd
kts
Gust
kts
27/11:30pm 22.9 21.7 4.4 30 9.2 CALM 0 0 0 0 1016.2 1015.5 0.0
27/11:00pm 22.4 21.1 4.0 30 9.1 CALM 0 2 0 1 1016.0 1015.3 0.0
27/10:30pm 23.0 20.0 4.0 29 9.4 ENE 9 11 5 6 1016.1 1015.4 0.0
27/10:00pm 22.8 19.4 3.9 29 9.3 NE 11 13 6 7 1016.0 1015.3 0.0
27/09:30pm 23.7 21.9 3.6 27 9.9 SSE 2 7 1 4 1016.1 1015.4 0.0
27/09:00pm 23.3 21.9 3.8 28 9.6 CALM 0 2 0 1 1015.8 1015.1 0.0
27/08:30pm 24.5 21.8 3.8 26 10.3 SW 7 9 4 5 1015.5 1014.8 0.0
27/08:00pm 24.5 21.4 3.8 26 10.3 SW 9 11 5 6 1015.6 1014.9 0.0
27/07:30pm 24.4 20.9 3.7 26 10.3 WSW 11 13 6 7 1015.6 1014.9 0.0
27/07:00pm 24.7 21.6 3.4 25 10.5 WSW 9 9 5 5 1015.5 1014.8 0.0

Other Formats:

Comma delimited format used in spreadsheet applications
http://www.bom.gov.au/fwo/IDS60801/IDS60801.95458.axf

JavaScript Object Notation format (JSON) in row-major order
http://www.bom.gov.au/fwo/IDS60801/IDS60801.95458.json